createdAt,value
2022-10-11T00:00:39.297Z,12.52
2022-10-11T00:05:57.925Z,12.63
2022-10-11T00:11:16.415Z,12.78
2022-10-11T00:17:50.552Z,12.78
2022-10-11T00:21:56.264Z,12.72
2022-10-11T00:27:14.909Z,12.7
2022-10-11T00:32:33.799Z,12.75
2022-10-11T00:39:07.961Z,12.73
2022-10-11T00:48:31.788Z,12.65
2022-10-11T00:53:51.550Z,12.6
2022-10-11T00:59:10.352Z,12.55
2022-10-11T01:04:29.488Z,12.53
2022-10-11T01:09:48.672Z,12.66
2022-10-11T01:15:07.811Z,12.78
2022-10-11T01:23:40.827Z,12.75
2022-10-11T01:25:44.469Z,12.76
2022-10-11T01:32:43.015Z,12.78
2022-10-11T01:36:24.160Z,12.85
2022-10-11T01:44:57.260Z,12.78
2022-10-11T01:53:30.260Z,12.63
2022-10-11T01:57:40.042Z,12.58
2022-10-11T02:02:58.717Z,12.55
2022-10-11T02:08:17.381Z,12.62
2022-10-11T02:13:36.815Z,12.62
2022-10-11T02:18:54.961Z,12.65
2022-10-11T02:24:15.382Z,12.62
2022-10-11T02:29:34.184Z,12.66
2022-10-11T02:34:53.813Z,12.8
2022-10-11T02:40:12.022Z,12.82
2022-10-11T02:45:31.386Z,12.83
2022-10-11T02:50:50.875Z,12.82
2022-10-11T02:56:09.898Z,12.78
2022-10-11T03:01:28.473Z,12.76
2022-10-11T03:06:48.457Z,12.72
2022-10-11T03:12:07.004Z,12.65
2022-10-11T03:17:35.921Z,12.59
2022-10-11T03:22:45.929Z,12.53
2022-10-11T03:28:05.203Z,12.45
2022-10-11T03:33:25.043Z,12.35
2022-10-11T03:38:43.175Z,12.27
2022-10-11T03:44:03.489Z,12.27
2022-10-11T03:49:23.001Z,12.18
2022-10-11T03:54:41.662Z,12.08
2022-10-11T04:00:01.353Z,12.01
2022-10-11T04:05:20.150Z,11.97
2022-10-11T04:10:40.005Z,11.91
2022-10-11T04:15:58.964Z,11.93
2022-10-11T04:21:18.719Z,11.93
2022-10-11T04:26:38.302Z,11.94
2022-10-11T04:31:57.139Z,11.93
2022-10-11T04:37:15.985Z,11.94
2022-10-11T04:42:36.350Z,11.93
2022-10-11T04:47:54.923Z,11.91
2022-10-11T04:53:14.329Z,11.91
2022-10-11T04:58:33.877Z,11.91
2022-10-11T05:03:53.387Z,11.87
2022-10-11T05:09:11.455Z,11.83
2022-10-11T05:14:31.910Z,11.83
2022-10-11T05:19:49.912Z,11.81
2022-10-11T05:25:09.135Z,11.79
2022-10-11T05:30:28.397Z,11.79
2022-10-11T05:35:48.672Z,11.8
2022-10-11T05:41:07.188Z,11.76
2022-10-11T05:46:27.545Z,11.76
2022-10-11T05:51:46.182Z,11.73
2022-10-11T05:57:05.572Z,11.76
2022-10-11T06:02:25.942Z,11.79
2022-10-11T06:09:00.117Z,11.79
2022-10-11T06:18:24.640Z,11.7
2022-10-11T06:23:42.280Z,11.7
2022-10-11T06:29:01.752Z,11.65
2022-10-11T06:34:20.741Z,11.69
2022-10-11T06:39:39.300Z,11.79
2022-10-11T06:44:59.060Z,11.84
2022-10-11T06:50:30.069Z,11.86
2022-10-11T06:56:52.748Z,12.01
2022-10-11T07:00:56.855Z,12.11
2022-10-11T07:07:55.367Z,12.2
2022-10-11T07:11:36.772Z,12.24
2022-10-11T07:27:34.344Z,12.24
2022-10-11T07:32:53.561Z,12.01
2022-10-11T07:38:11.033Z,11.8
2022-10-11T07:43:30.721Z,11.73
2022-10-11T07:48:58.538Z,11.71
2022-10-11T07:54:09.310Z,11.79
2022-10-11T08:00:43.464Z,11.9
2022-10-11T08:04:48.700Z,11.93
2022-10-11T08:10:07.458Z,11.95
2022-10-11T08:16:41.607Z,11.97
2022-10-11T08:20:47.296Z,11.97
2022-10-11T08:26:07.409Z,12.1
2022-10-11T08:31:25.945Z,12.08
2022-10-11T08:39:59.011Z,12.07
2022-10-11T08:44:15.540Z,12.22
2022-10-11T08:47:23.717Z,12.38
2022-10-11T08:52:42.920Z,12.66
2022-10-11T09:01:16.016Z,13.04
2022-10-11T09:09:49.038Z,13.74
2022-10-11T09:14:00.285Z,13.71
2022-10-11T09:22:33.385Z,13.97
2022-10-11T09:26:49.918Z,14.41
2022-10-11T09:29:58.452Z,15.32
2022-10-11T09:35:16.813Z,15.63
2022-10-11T09:42:15.433Z,15.87
2022-10-11T09:45:56.870Z,16.35
2022-10-11T09:51:16.123Z,15.96
2022-10-11T10:02:22.085Z,14.83
2022-10-11T10:13:00.395Z,14.23
2022-10-11T10:18:32.071Z,14.08
2022-10-11T10:26:53.120Z,14.09
2022-10-11T10:28:59.047Z,14.12
2022-10-11T10:39:47.811Z,14.34
2022-10-11T10:48:10.849Z,14.55
2022-10-11T10:56:43.929Z,14.57
2022-10-11T11:00:53.103Z,14.8
2022-10-11T11:07:51.705Z,14.91
2022-10-11T11:11:32.596Z,15.14
2022-10-11T11:16:52.090Z,15.19
2022-10-11T11:22:11.466Z,15.24
2022-10-11T11:27:39.580Z,15.25
2022-10-11T11:32:48.929Z,15.11
2022-10-11T11:38:07.732Z,15.28
2022-10-11T11:43:26.760Z,15.49
2022-10-11T11:48:46.055Z,15.5
2022-10-11T11:54:04.937Z,15.4
2022-10-11T12:00:28.920Z,15.45
2022-10-11T12:04:43.645Z,15.62
2022-10-11T12:10:02.562Z,15.83
2022-10-11T12:15:21.344Z,15.99
2022-10-11T12:20:39.025Z,16.1
2022-10-11T12:25:58.649Z,16.16
2022-10-11T12:31:18.042Z,16.17
2022-10-11T12:36:38.342Z,15.91
2022-10-11T12:41:57.247Z,15.82
2022-10-11T12:47:16.827Z,15.73
2022-10-11T12:52:36.132Z,15.85
2022-10-11T12:59:10.270Z,15.86
2022-10-11T13:03:31.169Z,15.8
2022-10-11T13:08:44.904Z,15.76
2022-10-11T13:13:53.816Z,15.74
2022-10-11T13:19:23.996Z,15.94
2022-10-11T13:24:31.713Z,16.21
2022-10-11T13:29:49.343Z,16.61
2022-10-11T13:35:08.039Z,16.51
2022-10-11T13:40:27.480Z,16.35
2022-10-11T13:45:46.806Z,16.21
2022-10-11T13:51:05.847Z,15.87
2022-10-11T13:56:24.852Z,15.83
2022-10-11T14:02:58.998Z,15.86
2022-10-11T14:07:04.964Z,15.65
2022-10-11T14:12:23.827Z,15.66
2022-10-11T14:17:42.860Z,15.77
2022-10-11T14:23:02.088Z,15.63
2022-10-11T14:28:21.789Z,15.4
2022-10-11T14:33:41.121Z,15.28
2022-10-11T14:39:00.554Z,15.21
2022-10-11T14:44:19.954Z,15.22
2022-10-11T14:49:38.946Z,15.21
2022-10-11T14:54:57.953Z,15.22
2022-10-11T15:00:16.994Z,15.21
2022-10-11T15:05:36.496Z,15.17
2022-10-11T15:10:55.430Z,15.14
2022-10-11T15:16:14.175Z,15.07
2022-10-11T15:24:51.464Z,15.04
2022-10-11T15:33:20.243Z,14.94
2022-10-11T15:37:31.702Z,14.9
2022-10-11T15:42:48.682Z,14.88
2022-10-11T15:48:07.982Z,14.8
2022-10-11T15:53:26.837Z,14.66
2022-10-11T15:58:46.158Z,14.5
2022-10-11T16:04:05.360Z,14.2
2022-10-11T16:09:24.280Z,13.86
2022-10-11T16:14:47.027Z,13.6
2022-10-11T16:20:03.227Z,13.37
2022-10-11T16:25:22.586Z,13.16
2022-10-11T16:30:42.291Z,12.97
2022-10-11T16:36:01.757Z,12.83
2022-10-11T16:41:19.414Z,12.82
2022-10-11T16:46:38.753Z,12.93
2022-10-11T16:53:12.897Z,13.02
2022-10-11T17:02:38.120Z,12.95
2022-10-11T17:07:56.956Z,12.95
2022-10-11T17:13:16.452Z,12.89
2022-10-11T17:18:35.856Z,12.8
2022-10-11T17:24:06.166Z,12.66
2022-10-11T17:29:14.789Z,12.51
2022-10-11T17:34:33.825Z,12.38
2022-10-11T17:39:53.246Z,12.32
2022-10-11T17:45:12.079Z,12.31
2022-10-11T17:50:31.144Z,12.32
2022-10-11T17:55:50.652Z,12.25
2022-10-11T18:04:23.725Z,12.21
2022-10-11T18:13:11.997Z,12.34
2022-10-11T18:22:28.288Z,12.51
2022-10-11T18:27:46.775Z,12.6
2022-10-11T18:33:05.852Z,12.44
2022-10-11T18:38:25.563Z,12.27
2022-10-11T18:43:44.537Z,12.24
2022-10-11T18:50:18.713Z,12.07
2022-10-11T18:54:24.561Z,11.98
2022-10-11T18:59:43.751Z,11.9
2022-10-11T19:05:02.699Z,11.81
2022-10-11T19:10:21.962Z,11.76
2022-10-11T19:19:07.032Z,11.69
2022-10-11T19:27:40.083Z,11.63
2022-10-11T19:31:44.643Z,11.59
2022-10-11T19:36:59.382Z,11.5
2022-10-11T19:42:18.257Z,11.49
2022-10-11T19:47:37.950Z,11.58
2022-10-11T19:52:56.694Z,11.58
2022-10-11T19:58:16.251Z,11.56
2022-10-11T20:06:49.309Z,11.44
2022-10-11T20:09:10.570Z,11.28
2022-10-11T20:14:13.653Z,11.11
2022-10-11T20:19:31.808Z,11.01
2022-10-11T20:24:50.045Z,10.91
2022-10-11T20:30:09.595Z,10.82
2022-10-11T20:35:29.103Z,10.88
2022-10-11T20:40:48.199Z,10.91
2022-10-11T20:46:07.084Z,10.92
2022-10-11T20:51:26.135Z,10.94
2022-10-11T20:56:45.632Z,10.91
2022-10-11T21:02:04.709Z,10.81
2022-10-11T21:07:23.641Z,10.7
2022-10-11T21:12:42.973Z,10.6
2022-10-11T21:18:02.099Z,10.57
2022-10-11T21:23:21.058Z,10.56
2022-10-11T21:28:40.591Z,10.6
2022-10-11T21:33:59.316Z,10.41
2022-10-11T21:39:18.334Z,10.16
2022-10-11T21:45:52.484Z,10
2022-10-11T21:49:57.718Z,9.89
2022-10-11T21:58:30.747Z,9.75
2022-10-11T22:02:47.301Z,9.54
2022-10-11T22:11:15.115Z,9.13
2022-10-11T22:16:34.578Z,9
2022-10-11T22:21:53.424Z,9.03
2022-10-11T22:27:12.745Z,9.04
2022-10-11T22:32:32.145Z,9.21
2022-10-11T22:37:51.168Z,9.27
2022-10-11T22:43:10.010Z,9.27
2022-10-11T22:48:29.489Z,9.32
2022-10-11T22:53:48.256Z,9.32
2022-10-11T22:59:07.106Z,9.31
2022-10-11T23:04:25.006Z,9.28
2022-10-11T23:09:44.587Z,9.28
2022-10-11T23:15:04.016Z,9.2
2022-10-11T23:20:23.633Z,9.16
2022-10-11T23:26:57.831Z,8.99
2022-10-11T23:31:14.342Z,8.87
2022-10-11T23:36:21.971Z,8.7
2022-10-11T23:41:41.215Z,8.66
2022-10-11T23:47:00.402Z,8.6
2022-10-11T23:52:19.414Z,8.49
2022-10-11T23:57:38.970Z,8.47
